Last 365 Observations

McCoy Bottom of Ch3 - 9,630ft

Daily Data | America/Los_Angeles
as of 7/14/24 3:27 PM PDT
Date Daily Max Temp (°F) Time of Max Temp Daily Min Temp (°F) Time of Min Temp Max RH (%) Min RH (%) Dew Pt (°F) Wet Bulb (°F) Max Wet Bulb Temp (°F) Min Wet Bulb Temp (°F) WetB Hrs <28F (hrs) Hrs <= 32F (hrs)
7/2/24 68.9 1458 48.3 0545 49 27 32.3 46.5 53.5 39.0 0.0 0.0
7/1/24 65.6 1552 45.4 0527 72 20 35.0 48.0 52.6 41.4 0.0 0.0
6/30/24 60.2 1213 48.0 0445 60 27 33.1 44.4 47.8 41.1 0.0 0.0
6/29/24 62.1 1503 50.0 0029 61 23 31.4 44.8 47.4 41.5 0.0 0.0
6/28/24 65.3 1327 52.7 0113 43 9 24.2 43.5 48.9 38.2 0.0 0.0
6/27/24 60.5 1328 47.7 0526 85 25 35.4 45.3 48.0 40.6 0.0 0.0
6/26/24 63.1 1409 49.0 0009 78 47 42.5 49.0 53.0 44.8 0.0 0.0
6/25/24 67.6 1331 52.7 0037 71 41 44.3 51.3 56.4 47.8 0.0 0.0
6/24/24 64.7 1355 53.5 0544 73 46 42.7 49.9 54.3 46.0 0.0 0.0
6/23/24 64.6 1432 54.0 0542 55 17 30.9 45.7 47.5 43.5 0.0 0.0
6/22/24 68.8 1308 49.5 0444 45 23 30.8 46.3 50.6 39.4 0.0 0.0
6/21/24 67.3 1532 47.0 0432 44 17 26.1 43.4 52.1 36.7 0.0 0.0
6/20/24 61.1 1348 42.2 0436 48 24 24.0 40.4 47.2 32.9 0.0 0.0
6/19/24 55.7 1354 39.6 0135 54 23 23.3 38.5 43.6 32.2 0.0 0.0
6/18/24 50.1 1346 30.2 0542 60 7 14.2 32.9 40.3 23.2 6.3 2.6
6/17/24 51.0 1459 31.5 0048 63 13 18.0 33.8 41.9 24.0 4.0 0.1
6/16/24 57.4 1330 41.7 0052 65 29 29.3 41.0 47.6 34.5 0.0 0.0
6/15/24 58.1 1533 44.2 0419 56 26 29.2 41.3 47.3 36.9 0.0 0.0
6/14/24 60.0 1447 45.5 0056 76 22 31.4 43.8 50.2 37.1 0.0 0.0
6/13/24 68.1 1345 50.4 0051 91 18 40.1 48.2 55.0 44.7 0.0 0.0
6/12/24 68.4 1216 53.1 0315 75 21 43.5 50.0 54.0 45.0 0.0 0.0
6/11/24 68.8 1143 50.5 0424 67 25 37.8 48.0 52.4 44.0 0.0 0.0
6/10/24 67.0 1458 45.2 0550 69 27 38.3 46.6 51.0 40.8 0.0 0.0
6/9/24 58.6 1146 49.1 1936 84 11 35.4 45.2 49.4 36.2 0.0 0.0
6/8/24 64.7 1137 50.8 2258 69 15 29.9 44.8 50.7 38.0 0.0 0.0
6/7/24 64.1 1335 51.8 0514 69 9 36.7 46.9 52.4 39.0 0.0 0.0
6/6/24 65.1 1340 53.2 2338 68 33 39.0 48.8 51.5 46.2 0.0 0.0
6/5/24 64.9 1234 49.4 0124 61 34 37.3 47.5 50.8 42.5 0.0 0.0
6/4/24 63.7 1722 43.6 0143 73 36 35.4 44.6 50.4 38.4 0.0 0.0
6/3/24 50.5 1939 43.5 2330 89 49 36.9 42.2 44.5 39.2 0.0 0.0
6/2/24 57.0 1321 41.5 0435 74 22 30.8 41.7 48.5 34.8 0.0 0.0
6/1/24 51.7 1311 41.0 0522 75 19 30.0 39.4 44.0 35.0 0.0 0.0
5/31/24 55.8 1149 39.7 0439 66 25 26.0 39.0 42.8 33.5 0.0 0.0
5/30/24 54.9 1235 38.8 0424 64 26 26.7 39.4 44.0 34.4 0.0 0.0
5/29/24 55.5 1413 39.9 0448 80 28 28.7 39.2 46.4 34.4 0.0 0.0
5/28/24 53.2 1054 41.4 0034 85 47 34.1 40.9 45.0 36.8 0.0 0.0
5/27/24 55.8 1324 39.9 0515 74 35 29.9 39.9 46.2 33.9 0.0 0.0
5/26/24 52.5 1018 39.6 0330 52 14 17.5 35.7 40.4 30.0 0.0 0.0
5/25/24 44.1 1340 29.0 0546 94 31 27.6 33.6 39.1 28.2 0.0 5.9
5/24/24 43.7 1326 32.2 0058 93 28 27.0 32.9 37.3 28.6 0.0 0.0
5/23/24 45.7 1458 36.2 0137 88 30 24.4 34.4 39.3 29.4 0.0 0.0
5/22/24 45.0 1457 35.1 0556 93 25 27.2 34.8 39.5 30.0 0.0 0.0
5/21/24 54.3 1453 25.7 0556 90 14 20.2 31.1 39.8 21.6 9.2 8.1
5/20/24 41.2 1355 29.1 0038 90 45 26.9 32.1 37.3 25.2 1.6 4.3
5/19/24 45.5 1436 33.6 0045 91 46 30.3 36.0 39.1 31.1 0.0 0.0
5/18/24 56.1 1006 39.4 1915 99 29 32.9 40.4 46.5 36.0 0.0 0.0
5/17/24 55.4 1243 42.2 0520 93 26 32.6 41.9 48.2 37.1 0.0 0.0
5/16/24 55.8 1253 38.8 0516 93 22 28.7 39.9 48.4 32.0 0.0 0.0
5/15/24 54.1 1728 40.2 0544 55 25 22.6 37.4 41.3 33.4 0.0 0.0
5/14/24 53.5 1358 39.1 0556 70 38 28.9 38.4 42.6 34.5 0.0 0.0
5/13/24 56.2 1139 37.8 1933 82 34 31.3 38.7 43.9 34.9 0.0 0.0
5/12/24 50.3 1427 35.4 0444 81 28 25.9 36.8 42.5 29.7 0.0 0.0
5/11/24 48.8 1752 32.8 0538 59 29 21.0 33.5 38.2 28.5 0.0 0.0
5/10/24 42.8 1417 29.0 0600 76 30 21.0 31.2 35.0 26.4 2.8 4.4
5/9/24 41.5 1740 20.4 0352 81 39 18.5 27.2 33.9 18.8 10.1 9.6
5/8/24 37.1 1628 16.7 0531 75 24 11.4 22.9 29.7 14.9 20.5 16.7
5/7/24 44.9 1611 23.8 0008 66 16 7.7 27.6 35.4 20.6 13.4 9.0
5/6/24 42.4 1154 22.8 0101 81 15 13.3 27.4 33.6 20.5 13.0 7.7
5/5/24 26.0 2342 10.5 0533 96 63 14.1 16.6 23.2 10.2 24.0 24.0
5/4/24 34.5 0102 14.7 0059 100 84 25.5 26.0 34.5 14.3 11.5 20.7
5/3/24 45.5 1404 34.4 0056 100 41 27.0 34.2 39.5 28.9 0.0 0.0
5/2/24 45.5 1233 29.5 0415 94 21 22.7 33.1 39.2 25.0 3.3 1.0
5/1/24 44.2 1352 22.9 0508 91 12 14.7 29.7 37.1 20.1 10.0 4.2
4/30/24 42.9 1527 32.5 0005 97 14 13.7 31.0 36.7 25.8 6.1 0.0
4/29/24 44.5 1338 29.4 0427 99 16 19.6 31.8 38.7 24.4 3.9 4.5
4/28/24 42.9 1012 25.4 0530 93 38 26.0 31.9 38.2 23.6 6.2 6.3
4/27/24 40.4 1511 17.1 0537 97 41 22.2 27.4 35.9 16.5 11.8 12.5
4/26/24 27.3 0111 21.6 2124 98 92 23.5 23.9 27.1 21.0 24.0 24.0
4/25/24 36.5 1309 27.0 0028 99 38 22.5 28.4 33.0 24.6 10.3 15.2
4/24/24 45.0 0917 30.0 2320 91 10 20.5 30.4 35.6 25.4 3.5 5.2
4/23/24 46.5 0910 35.0 2006 94 39 29.6 33.6 39.5 30.8 0.0 0.0
4/22/24 50.2 1246 38.5 2337 86 37 29.1 37.7 40.3 34.4 0.0 0.0
4/21/24 51.8 1340 37.1 0344 58 30 25.3 37.1 40.4 31.6 0.0 0.0
4/20/24 49.8 1111 34.8 0226 79 27 25.6 36.1 41.7 30.6 0.0 0.0
4/19/24 47.4 1243 34.8 0235 88 28 22.8 33.9 40.2 29.2 0.0 0.0
4/18/24 43.9 1317 35.7 0035 93 19 21.0 33.0 37.5 28.8 0.0 0.0
4/17/24 46.4 1351 35.7 0612 91 25 21.0 34.0 39.2 29.0 0.0 0.0
4/16/24 47.8 1105 25.9 0516 88 22 19.7 31.6 36.5 23.0 7.0 6.1
4/15/24 41.1 1627 17.4 0327 97 24 19.1 25.4 32.9 16.9 15.0 16.9
4/14/24 23.3 1402 13.5 0520 96 91 17.5 18.5 22.9 13.1 24.0 24.0
4/13/24 35.0 1050 15.1 0059 98 35 17.0 23.2 29.3 14.6 22.6 18.2
4/12/24 40.4 0921 29.4 2258 82 45 25.0 31.8 35.0 27.6 1.2 4.1
4/11/24 53.2 1123 34.5 0352 61 24 21.0 34.1 40.4 29.6 0.0 0.0
4/10/24 50.4 1316 30.5 0557 58 18 20.0 33.0 39.0 24.7 3.9 2.1
4/9/24 44.9 1459 19.1 0109 71 11 7.4 27.5 34.9 16.4 10.2 7.5
4/8/24 29.1 1705 13.0 0624 94 37 11.1 18.0 23.5 12.6 24.0 24.0
4/7/24 29.2 1038 14.3 0048 96 18 3.6 17.3 22.8 12.6 24.0 24.0
4/6/24 22.4 2135 7.5 0101 92 22 3.6 13.7 17.2 7.4 24.0 24.0
4/5/24 12.1 1353 6.5 0021 100 89 6.8 8.8 11.7 6.4 24.0 24.0
4/4/24 28.5 0148 7.2 0037 99 85 16.2 17.4 27.5 7.1 24.0 24.0
4/3/24 41.4 1003 27.1 0059 99 30 23.3 30.7 33.9 26.9 2.9 7.3
4/2/24 45.4 1513 25.6 0111 77 26 19.0 29.5 35.9 23.4 8.0 8.0
4/1/24 28.0 1823 14.1 0541 100 53 17.8 20.5 25.1 13.8 24.0 24.0
3/31/24 22.5 1151 15.1 0426 97 93 16.9 17.7 22.2 14.7 24.0 24.0
3/30/24 24.4 1134 14.7 0654 99 93 16.7 17.6 24.2 14.3 24.0 24.0
3/29/24 21.0 2227 16.4 0839 96 93 17.3 18.1 20.6 16.0 24.0 24.0
3/28/24 23.8 0434 19.4 0059 97 90 20.6 21.2 23.4 19.0 24.0 24.0
3/27/24 32.9 1034 23.1 0053 97 17 13.2 23.6 27.3 19.2 24.0 23.1
3/26/24 30.5 1441 15.7 0740 95 28 12.2 20.5 26.8 14.6 24.0 24.0
3/25/24 25.2 1520 10.7 0405 94 49 13.0 17.3 23.0 10.4 24.0 24.0
3/24/24 21.4 1516 13.0 0014 96 91 14.2 15.5 21.1 12.6 24.0 24.0
3/23/24 23.6 0117 13.7 0059 96 88 16.8 17.9 23.1 13.3 24.0 24.0
3/22/24 33.5 1237 23.4 0047 97 23 21.1 27.3 30.0 22.9 15.2 18.3
3/21/24 37.1 1602 26.9 0313 90 37 21.4 28.3 32.4 24.7 10.5 9.4
3/20/24 39.6 1159 28.2 0025 95 46 23.7 30.1 35.2 25.0 6.8 8.7
3/19/24 44.6 1424 27.1 0343 68 30 18.4 29.1 35.6 23.8 8.6 7.9
3/18/24 41.0 1430 24.6 0415 77 38 18.4 27.6 33.8 22.5 13.6 12.9
3/17/24 35.8 1623 24.3 0601 83 52 20.0 26.4 30.7 22.6 16.8 17.0
3/16/24 33.5 1455 20.0 0715 88 59 19.4 24.5 29.4 18.9 20.7 21.3
3/15/24 23.1 1709 15.3 0824 96 75 16.1 18.2 21.2 14.9 24.0 24.0
3/14/24 19.8 1437 7.0 0759 95 54 9.4 12.9 17.4 6.8 24.0 24.0
3/13/24 32.6 1041 11.4 0058 96 35 10.7 19.6 26.3 10.6 24.0 23.9
3/12/24 27.0 1220 19.1 0043 99 59 22.6 23.4 26.8 18.7 24.0 24.0
3/11/24 28.5 2323 19.7 0504 98 57 21.4 22.8 25.9 19.3 24.0 24.0
3/10/24 29.3 1404 21.6 0057 98 29 12.7 22.1 26.2 18.7 24.0 24.0
3/9/24 29.1 1128 23.4 0803 79 23 8.9 21.5 24.6 18.6 24.0 24.0
3/8/24 33.5 1418 12.1 0507 95 20 2.8 19.1 25.6 11.8 24.0 22.1
3/7/24 28.3 1046 14.1 0613 98 56 14.7 18.5 25.1 12.7 24.0 24.0
3/6/24 34.2 1323 17.4 2359 97 36 12.2 20.1 27.6 16.8 24.0 23.9
3/5/24 24.3 1320 17.4 0640 96 55 13.5 18.5 21.7 16.1 24.0 24.0
3/4/24 20.3 1930 10.8 0718 96 85 14.2 15.6 19.9 10.6 24.0 24.0
3/3/24 14.6 0001 11.0 0336 100 92 11.0 12.4 14.3 10.7 24.0 24.0
3/2/24 20.7 0053 10.4 1734 96 91 12.4 13.7 20.3 10.1 24.0 24.0
3/1/24 23.2 1337 19.1 1844 97 94 19.6 20.2 22.8 18.7 24.0 24.0
2/29/24 25.0 1335 20.0 2358 98 69 20.5 22.2 24.7 19.6 24.0 24.0
2/28/24 34.2 1114 24.4 2321 97 37 15.9 24.7 28.1 22.0 24.0 22.1
2/27/24 28.6 2330 17.3 0544 97 36 16.3 21.1 26.8 16.9 24.0 24.0
2/26/24 25.2 1636 21.3 2359 98 82 22.3 22.9 24.9 20.9 24.0 24.0
2/25/24 34.3 1243 23.9 2355 98 23 12.2 24.7 28.0 20.5 24.0 20.1
2/24/24 41.5 1038 19.9 0122 83 22 10.2 25.0 31.5 17.9 19.0 15.9
2/23/24 36.4 1426 17.7 0306 88 23 13.3 21.3 31.7 14.2 21.5 22.2
2/22/24 31.2 1238 13.3 0354 90 29 9.4 18.6 25.0 11.6 24.0 24.0
2/21/24 21.0 0030 14.6 2215 96 83 16.8 18.0 20.5 13.8 24.0 24.0
2/20/24 24.9 1222 18.2 0113 97 74 18.6 19.9 23.1 17.7 24.0 24.0
2/19/24 28.6 0025 18.3 2338 99 83 22.0 22.6 27.4 17.9 24.0 24.0
2/18/24 29.3 2302 20.7 0820 97 46 19.5 23.4 26.9 19.3 24.0 24.0
2/17/24 30.2 0049 22.3 1842 97 60 21.1 24.3 27.0 21.8 24.0 24.0
2/16/24 39.9 1017 24.6 2106 91 35 16.2 26.6 32.5 20.8 18.1 16.8
2/15/24 28.2 2332 17.2 0719 96 32 14.0 20.1 23.0 16.8 24.0 24.0
2/14/24 24.9 0844 20.5 2332 96 48 14.6 20.5 22.2 17.5 24.0 24.0
2/13/24 28.3 1212 20.3 2154 93 24 7.5 20.3 22.4 17.7 24.0 24.0
2/12/24 39.8 1056 21.9 0502 55 16 1.5 22.1 29.5 16.4 23.8 19.2
2/11/24 38.1 0952 22.8 2241 56 9 7.7 24.1 30.1 17.6 18.5 16.6
2/10/24 27.7 2353 4.5 0724 93 6 -1.1 12.4 19.5 4.5 24.0 24.0
2/9/24 17.7 1504 9.0 0328 100 90 12.5 13.7 17.3 8.8 24.0 24.0
2/8/24 24.0 1105 10.7 2008 98 91 13.7 14.9 23.7 10.4 24.0 24.0
2/7/24 16.6 0337 12.1 2358 95 92 14.0 15.1 16.3 11.8 24.0 24.0
2/6/24 23.8 1133 16.0 2125 98 94 17.8 18.5 23.5 15.7 24.0 24.0
2/5/24 21.6 0025 16.8 0747 97 94 18.2 18.9 21.2 16.5 24.0 24.0
2/4/24 25.4 1537 15.9 0041 98 94 20.3 20.9 25.2 15.5 24.0 24.0
2/3/24 16.5 1422 11.3 0610 94 91 12.5 13.9 16.1 11.0 24.0 24.0
2/2/24 17.4 1358 13.6 2347 94 92 14.2 15.3 17.0 13.2 24.0 24.0
2/1/24 26.0 0301 16.5 2358 98 91 20.3 21.0 25.6 16.1 24.0 24.0
1/31/24 34.6 0039 24.2 2349 97 36 17.9 26.1 28.6 23.6 23.7 15.4
1/30/24 42.4 1042 30.4 0139 69 26 15.9 30.0 33.2 26.0 4.7 1.4
1/29/24 47.2 1219 30.3 0719 76 38 22.6 31.6 38.2 27.5 0.4 4.1
1/28/24 44.1 1346 31.3 0623 71 48 24.1 32.3 37.0 28.2 0.0 0.2
1/27/24 47.7 1123 33.1 2359 68 39 25.1 34.0 39.4 29.3 0.0 0.0
1/26/24 43.1 1259 20.8 0215 73 12 19.9 29.7 36.6 17.3 6.5 5.8
1/25/24 25.1 0023 16.3 0741 99 57 18.4 20.0 24.8 15.9 24.0 24.0
1/24/24 30.0 0941 21.2 0348 100 60 24.4 25.8 29.0 19.1 17.0 24.0
1/23/24 30.4 1316 17.8 0638 100 73 21.3 22.2 30.3 17.4 22.9 24.0
1/22/24 27.7 1228 23.2 0436 99 93 24.7 24.9 27.5 22.7 24.0 24.0
1/21/24 26.4 1227 20.0 0019 99 88 23.1 23.7 25.9 19.6 24.0 24.0
1/20/24 36.2 0725 20.0 2359 99 16 21.0 21.5 28.7 19.6 15.4 11.0
1/14/24 36.2 2105 21.9 0750 97 15 15.3 24.0 26.8 21.5 24.0 18.2
1/13/24 31.9 0430 21.3 1918 97 68 22.8 24.6 28.7 20.9 22.9 24.0
1/12/24 28.5 0643 21.7 0032 77 29 7.5 20.6 25.8 17.1 24.0 24.0
1/11/24 25.0 1506 1.3 0722 91 20 -1.9 12.0 18.9 1.4 24.0 24.0
1/10/24 18.5 0007 11.6 2359 93 53 11.7 15.1 16.9 11.1 24.0 24.0
1/9/24 31.2 0014 17.1 2309 96 33 15.9 18.6 25.1 15.2 23.2 23.2
1/8/24 31.8 2216 2.7 0029 89 13 4.3 18.0 25.7 2.7 24.0 24.0
1/7/24 10.6 1325 1.3 0521 89 56 -1.8 4.7 8.9 1.2 21.4 21.4
1/6/24 24.5 0247 5.3 2359 91 20 2.7 13.6 18.2 5.2 24.0 24.0
1/5/24 26.5 0107 15.7 1903 96 26 5.0 17.1 21.1 11.6 24.0 24.0
1/4/24 23.3 2323 8.4 0349 94 35 9.0 15.3 19.1 8.1 24.0 24.0
1/3/24 18.6 0001 12.0 0827 94 90 11.9 13.4 18.0 11.7 23.8 23.8
1/2/24 26.6 1341 18.5 2354 93 54 13.8 20.6 22.8 16.6 24.0 24.0
1/1/24 30.8 1303 15.7 0634 88 52 12.2 19.4 26.4 14.0 24.0 24.0
12/31/23 28.6 1147 17.4 0554 83 16 3.6 17.9 21.3 12.8 24.0 24.0
12/30/23 26.2 1231 19.3 2051 97 64 19.8 21.5 24.5 17.7 24.0 24.0
12/29/23 37.7 0054 25.6 2359 70 18 11.9 27.5 30.5 22.9 10.8 4.3
12/28/23 39.9 1430 29.6 0119 90 36 20.7 30.0 34.2 27.6 0.1 4.3
12/27/23 36.5 0238 26.4 2212 81 15 1.4 23.9 29.1 21.2 23.4 17.4
12/26/23 37.3 2258 30.0 0247 72 15 7.8 26.9 30.6 24.0 19.3 1.7
12/25/23 40.6 1110 29.1 0633 80 35 19.6 29.2 34.6 24.3 8.4 2.9
12/24/23 40.2 1235 21.3 0032 75 19 6.3 24.8 30.7 18.7 22.0 12.0
12/23/23 31.1 1349 19.9 0627 97 56 19.6 22.2 30.3 18.2 22.2 24.0
12/22/23 31.1 1304 21.6 2358 100 97 25.6 25.6 31.0 21.2 19.7 24.0
12/21/23 29.5 1434 24.2 0533 100 98 26.9 26.8 29.4 23.9 18.7 24.0
12/20/23 30.2 1204 24.6 0737 100 98 26.8 26.8 30.1 24.3 21.0 24.0
12/19/23 29.3 0039 25.0 2359 100 98 27.2 27.2 29.2 24.7 17.6 24.0
12/18/23 40.1 0001 27.7 0217 100 20 28.5 30.5 33.0 27.0 1.4 19.0
12/17/23 47.4 1042 35.3 0123 35 14 3.1 29.5 35.7 26.1 2.8 0.0
12/16/23 46.5 1348 33.7 2210 26 6 -4.6 28.6 33.0 25.3 11.7 0.0
12/15/23 43.8 2348 27.8 2136 40 11 0.7 26.3 32.2 21.7 18.1 5.6
12/14/23 39.0 1156 24.5 0032 40 10 -6.4 23.9 29.0 18.6 23.8 12.4
12/13/23 32.0 1343 15.6 0334 94 31 8.7 20.4 25.6 15.0 24.0 24.0
12/12/23 31.8 1026 17.8 2350 96 35 13.2 21.8 26.6 17.3 24.0 24.0
12/11/23 38.9 0103 25.7 2230 63 7 3.3 26.3 29.1 20.8 17.9 6.6
12/10/23 49.2 1053 34.6 0236 59 11 7.5 31.2 35.7 27.1 1.3 0.0
12/9/23 39.4 1301 31.6 0150 55 11 7.1 27.9 32.7 23.8 12.9 0.3
12/8/23 35.6 1349 22.7 0011 35 7 -11.5 21.0 25.8 16.7 24.0 19.1
12/7/23 23.9 1331 17.9 0726 97 22 16.8 20.3 23.3 16.8 24.0 24.0
12/6/23 39.2 0012 23.1 2154 97 38 20.0 27.3 31.6 22.4 9.2 8.7
12/5/23 46.8 1155 29.3 0006 60 29 16.8 31.6 36.2 25.3 3.9 2.1
12/4/23 41.8 1141 28.3 0655 60 30 15.4 28.5 33.9 23.7 9.5 4.2
12/3/23 39.6 0852 26.5 0033 65 27 12.3 27.4 31.6 22.5 10.4 6.0
12/2/23 30.4 1616 21.7 0033 87 33 12.1 22.0 25.7 19.0 24.0 24.0
12/1/23 27.1 1325 17.2 0339 94 50 13.8 20.2 23.5 16.6 24.0 24.0
11/30/23 23.3 1112 17.8 2351 95 67 16.8 19.2 21.2 17.3 24.0 24.0
11/29/23 33.7 1319 19.4 2029 86 32 11.5 21.2 27.1 17.0 24.0 23.1
11/28/23 35.1 1042 19.7 0005 54 9 -3.6 21.5 25.5 14.3 24.0 19.3
11/27/23 34.6 1224 17.2 0533 45 14 -9.2 17.5 25.6 12.6 24.0 22.0
11/26/23 33.6 1243 19.8 0140 43 10 -9.5 19.2 25.2 14.2 24.0 21.7
11/25/23 28.6 1400 14.1 0705 54 15 -3.6 16.5 21.8 10.3 24.0 24.0
11/24/23 27.3 1319 9.4 0654 95 39 10.7 15.9 23.1 9.1 24.0 24.0
11/23/23 40.3 0032 19.0 2359 98 23 19.5 26.6 32.1 18.5 10.5 12.1
11/22/23 50.4 1018 35.2 2110 43 15 8.2 31.4 36.3 27.0 1.3 0.0
11/21/23 50.3 1241 32.6 0019 32 7 0.2 30.9 36.5 23.6 5.8 0.0
11/20/23 41.4 1345 29.0 0057 23 8 -11.8 25.4 29.8 20.7 20.4 6.0
11/19/23 41.1 1203 18.0 0411 99 14 3.0 23.2 30.8 17.2 22.5 17.0
11/18/23 28.2 1640 25.2 2359 100 92 26.7 26.7 28.0 24.9 24.0 24.0
11/17/23 33.3 1407 21.4 0725 99 66 24.7 26.3 31.3 21.0 18.4 22.4
11/16/23 32.3 1200 23.1 2359 100 70 28.1 28.5 32.0 21.4 7.7 23.7
11/15/23 38.4 0940 26.9 1730 100 21 20.8 29.2 35.5 24.6 9.7 9.2
11/14/23 37.9 1253 27.8 0349 57 26 7.8 26.5 30.3 22.8 18.0 8.1
11/13/23 37.0 1344 29.1 2145 49 26 8.6 25.8 29.7 23.4 19.1 14.7
11/12/23 40.6 1100 30.8 2240 41 21 8.3 28.3 31.3 24.1 8.1 4.1
11/11/23 46.1 1420 31.8 2222 47 21 10.4 29.6 34.3 25.2 5.2 0.1
11/10/23 42.9 1323 27.2 2035 83 8 2.2 26.0 32.6 21.5 18.1 9.4
11/9/23 30.6 2356 15.6 0609 94 14 10.6 21.0 26.6 14.8 24.0 24.0
11/8/23 23.7 1336 17.0 2155 97 93 18.9 19.6 23.3 16.5 24.0 24.0
11/7/23 28.3 0032 20.5 2345 99 96 22.7 23.1 28.0 20.1 24.0 24.0
11/6/23 36.2 0042 27.8 2320 100 59 28.0 29.7 33.4 27.1 2.2 20.0
11/5/23 44.8 1252 34.8 2356 79 28 21.9 32.9 37.4 29.2 0.0 0.0
11/4/23 50.4 1410 39.2 0058 63 35 26.0 37.1 39.8 33.6 0.0 0.0
11/3/23 54.2 1057 38.0 0617 51 13 19.3 36.6 41.4 30.2 0.0 0.0
11/2/23 51.6 1312 36.8 0025 40 13 5.9 33.5 36.6 29.2 0.0 0.0
11/1/23 53.8 1404 33.2 0342 50 9 2.6 30.3 38.1 24.8 4.6 0.0
10/31/23 50.1 1400 30.5 0502 26 11 -0.9 29.5 36.1 22.6 8.6 1.3
10/30/23 47.9 1457 29.8 0123 35 5 -9.6 27.3 34.0 20.7 14.5 1.6
10/29/23 35.7 1319 20.3 0436 37 5 -7.2 21.1 27.4 14.4 24.0 17.4
10/28/23 35.2 1112 15.1 2237 76 7 0.5 21.0 26.8 13.4 24.0 22.5
10/27/23 40.5 1414 29.2 0042 80 6 1.5 27.5 32.3 22.8 11.6 1.7
10/26/23 40.0 1458 26.4 0726 100 25 21.6 29.3 33.1 25.0 7.0 10.0
10/25/23 41.0 1133 27.8 0027 100 29 23.4 31.2 34.2 27.4 0.6 6.6
10/24/23 48.8 1137 31.1 0404 74 11 18.7 32.7 38.5 24.2 3.7 0.3
10/23/23 43.1 1555 30.6 0708 98 54 29.1 32.7 37.7 29.2 0.0 5.8
10/22/23 41.1 0103 31.4 2302 97 65 31.8 34.3 37.0 30.0 0.0 3.9
10/21/23 54.5 1258 41.0 0059 67 31 29.8 39.7 43.1 36.6 0.0 0.0
10/20/23 56.0 1249 43.9 2013 65 32 27.7 40.6 44.2 37.9 0.0 0.0
10/19/23 63.3 1453 42.3 0152 43 15 22.9 40.8 44.7 33.9 0.0 0.0
10/18/23 61.1 1500 40.6 0705 49 19 22.4 39.4 45.3 34.1 0.0 0.0
10/17/23 58.9 1449 45.7 0050 42 12 15.5 38.0 42.4 34.5 0.0 0.0
10/16/23 56.4 1325 47.8 0056 44 8 21.4 39.8 44.2 34.3 0.0 0.0
10/15/23 61.2 1242 40.8 0645 52 17 24.5 40.5 45.5 31.4 0.0 0.0
10/14/23 51.1 1543 35.9 0103 60 10 14.9 34.2 39.2 28.2 0.0 0.0
10/13/23 49.1 1209 32.2 0111 66 7 16.0 32.6 36.0 27.6 0.2 0.0
10/12/23 44.6 1616 23.4 0657 85 32 18.6 28.2 35.8 21.0 10.5 9.5
10/11/23 42.3 1356 25.0 0038 100 29 24.4 30.0 37.0 23.4 7.7 13.8
10/10/23 46.5 1422 31.3 0040 100 23 23.2 33.8 38.3 30.5 0.0 0.3
10/9/23 51.8 1358 38.3 2326 81 34 29.5 38.8 42.1 33.0 0.0 0.0
10/8/23 59.0 1234 47.8 2355 50 26 27.4 41.8 45.4 37.6 0.0 0.0
10/7/23 60.4 1430 41.1 0114 57 17 27.3 40.6 45.8 35.1 0.0 0.0
10/6/23 58.0 1517 39.6 0440 71 23 28.5 40.1 45.8 35.4 0.0 0.0
10/5/23 55.2 1552 37.6 0500 80 36 32.6 40.3 44.7 35.2 0.0 0.0
10/4/23 51.4 1549 34.3 0706 97 54 33.7 38.3 44.9 33.4 0.0 0.0
10/3/23 48.6 1357 32.8 0318 98 53 32.8 37.3 44.1 29.8 0.0 0.0
10/2/23 41.4 1502 24.7 0221 100 70 30.1 31.8 38.3 24.3 6.7 8.2
10/1/23 36.9 1321 25.9 0711 100 71 27.8 28.9 35.0 24.9 7.9 19.3
9/30/23 34.9 0101 25.2 1004 100 86 29.0 29.4 34.9 24.8 7.4 19.4
9/29/23 49.1 1151 34.6 0051 100 17 28.2 37.4 41.4 33.0 0.0 0.0
9/28/23 58.0 1437 46.8 2355 70 11 20.2 39.4 44.9 33.5 0.0 0.0
9/27/23 60.2 1323 47.6 0436 67 19 23.2 40.5 45.8 35.8 0.0 0.0
9/26/23 56.2 1347 42.5 0550 56 9 11.8 36.5 43.0 30.8 0.0 0.0
9/25/23 53.2 1244 40.8 0653 47 15 12.9 34.7 38.2 31.1 0.0 0.0
9/24/23 54.2 1433 41.9 0237 42 17 12.7 35.0 39.7 31.2 0.0 0.0
9/23/23 52.2 1327 41.2 0533 54 7 9.0 34.6 38.6 29.7 0.0 0.0
9/22/23 52.5 1357 34.0 0246 59 9 7.6 32.6 38.3 26.8 2.9 0.0
9/21/23 40.5 1133 33.4 2140 96 44 31.5 34.5 37.1 28.4 0.0 0.0
9/20/23 55.1 1132 37.3 0035 99 38 34.6 40.3 46.2 34.8 0.0 0.0
9/19/23 58.8 1333 40.4 0654 68 23 30.2 40.7 45.7 36.4 0.0 0.0
9/18/23 58.7 1411 43.2 0139 63 25 29.9 41.6 45.8 38.0 0.0 0.0
9/17/23 59.7 1605 44.2 0021 69 33 34.1 43.5 48.0 39.1 0.0 0.0
9/16/23 60.0 1445 44.9 2346 68 29 33.2 43.1 47.8 39.9 0.0 0.0
9/15/23 59.5 1438 41.1 0645 73 28 31.9 42.3 47.8 35.4 0.0 0.0
9/14/23 60.1 1536 43.9 0651 70 36 34.3 42.8 48.3 37.6 0.0 0.0
9/13/23 58.3 1407 43.8 0619 75 29 35.4 43.9 48.5 40.5 0.0 0.0
9/12/23 58.2 1329 41.9 0534 82 34 36.4 43.8 48.2 39.7 0.0 0.0
9/11/23 56.5 1322 44.1 0056 88 47 40.7 46.0 49.6 41.0 0.0 0.0
9/10/23 58.9 1405 47.4 1838 89 50 43.6 47.6 52.1 44.4 0.0 0.0
9/9/23 58.0 1510 44.9 1012 91 59 42.7 47.0 52.5 43.1 0.0 0.0
9/8/23 60.5 1416 45.4 0343 64 18 22.2 40.3 44.2 33.8 0.0 0.0
9/7/23 58.5 1235 44.3 0627 68 18 26.8 40.9 46.0 34.6 0.0 0.0
9/6/23 56.5 1308 44.6 0538 84 34 36.8 43.6 47.6 40.7 0.0 0.0
9/5/23 57.6 1606 42.9 0609 79 25 33.1 42.6 47.5 37.5 0.0 0.0
9/4/23 56.2 1608 32.7 0104 99 38 30.5 38.7 46.0 29.6 0.0 0.0
9/3/23 45.4 0931 32.9 0059 100 72 36.9 38.2 42.3 32.2 0.0 0.0
9/2/23 46.8 1257 41.0 0442 100 55 39.7 42.2 46.6 35.6 0.0 0.0
9/1/23 52.2 1409 40.5 2205 69 25 23.5 37.1 41.2 34.0 0.0 0.0
8/31/23 60.2 1250 45.7 2328 50 11 17.8 39.8 44.4 35.3 0.0 0.0
8/30/23 68.6 1226 45.9 0542 42 7 18.0 42.8 47.1 36.6 0.0 0.0
8/29/23 65.8 1528 52.5 0530 56 15 29.4 45.2 49.3 40.7 0.0 0.0
8/28/23 69.3 1508 47.7 0613 43 16 28.2 45.1 49.8 38.0 0.0 0.0
8/27/23 66.5 1503 46.1 0140 55 12 26.0 43.6 49.0 38.6 0.0 0.0
8/26/23 62.7 1412 46.2 0044 61 24 31.0 43.7 49.2 38.8 0.0 0.0
8/25/23 60.3 1258 48.6 0509 82 45 41.0 47.5 51.4 43.5 0.0 0.0
8/24/23 57.7 1302 44.2 0420 84 31 37.8 45.3 49.4 37.6 0.0 0.0
8/23/23 60.5 1453 38.9 0551 90 30 35.2 43.4 49.8 37.6 0.0 0.0
8/22/23 53.2 1357 40.2 0415 91 56 38.2 42.6 47.4 38.1 0.0 0.0
8/21/23 48.5 1622 40.0 0755 100 71 41.2 42.6 46.3 39.0 0.0 0.0
8/20/23 44.2 1358 39.9 2113 100 78 40.2 41.3 43.8 39.2 0.0 0.0
8/19/23 56.4 1000 41.3 0044 99 30 34.2 42.9 47.6 38.0 0.0 0.0
8/18/23 62.5 1233 46.6 1831 84 24 31.6 44.2 47.4 40.2 0.0 0.0
8/17/23 62.2 1331 49.6 0725 76 41 40.4 48.1 51.8 44.8 0.0 0.0
8/16/23 65.0 1352 49.8 1815 85 36 39.8 48.0 53.4 44.1 0.0 0.0
8/15/23 60.2 1814 46.9 0430 88 34 38.7 46.4 51.3 40.0 0.0 0.0
8/14/23 61.0 1735 47.9 0325 75 39 39.0 47.0 50.9 43.4 0.0 0.0
8/13/23 58.2 1814 47.2 1244 86 42 38.9 46.0 50.2 43.1 0.0 0.0
8/12/23 64.8 1625 45.0 0526 86 29 38.3 46.4 52.7 41.0 0.0 0.0
8/11/23 60.0 1502 45.9 0207 84 45 41.9 47.0 53.6 42.6 0.0 0.0
8/10/23 64.4 1413 46.1 0519 73 29 33.3 44.8 50.1 38.0 0.0 0.0
8/9/23 61.1 1338 49.2 0149 59 6 18.1 41.1 44.9 36.0 0.0 0.0
8/8/23 61.2 1324 47.8 0310 66 17 28.8 43.1 47.2 38.6 0.0 0.0
8/7/23 63.1 1307 47.7 0533 69 11 30.8 44.7 50.2 40.2 0.0 0.0
8/6/23 66.6 1356 45.9 0546 65 8 33.4 45.8 51.2 41.1 0.0 0.0
8/5/23 62.0 1555 44.6 0605 63 10 25.3 42.7 46.6 34.9 0.0 0.0
8/4/23 62.4 1136 44.9 0534 73 7 24.7 42.8 49.7 36.4 0.0 0.0
8/3/23 60.8 1132 45.0 0524 70 20 33.2 44.2 48.3 39.2 0.0 0.0
8/2/23 61.8 1113 49.1 2034 63 26 30.5 43.7 47.9 40.1 0.0 0.0
8/1/23 62.1 1242 51.6 0059 50 30 30.8 44.3 48.2 41.6 0.0 0.0
7/31/23 62.9 1440 53.4 2232 42 28 29.8 44.8 48.7 41.4 0.0 0.0
7/30/23 63.8 1458 53.0 0331 56 16 30.1 45.1 49.2 41.0 0.0 0.0
7/29/23 63.0 1227 53.5 2348 51 16 27.0 44.4 48.8 40.2 0.0 0.0
7/28/23 65.8 1559 51.8 0255 46 12 27.4 44.6 48.2 40.7 0.0 0.0
7/27/23 62.8 1444 50.9 0344 52 16 30.1 44.3 47.5 42.0 0.0 0.0
7/26/23 64.1 1338 53.0 0011 51 28 32.9 46.4 49.2 44.2 0.0 0.0
7/25/23 65.5 1446 53.9 0114 48 25 33.5 47.0 50.3 44.3 0.0 0.0
7/24/23 61.8 1229 50.8 0211 75 27 36.9 47.1 50.1 43.1 0.0 0.0
7/23/23 68.6 1251 51.9 0007 62 18 33.0 48.1 53.0 42.9 0.0 0.0
7/22/23 71.8 1207 54.6 0411 49 19 32.3 48.0 52.5 43.5 0.0 0.0
7/21/23 72.8 1402 52.2 0503 52 16 36.1 49.0 54.1 42.3 0.0 0.0
7/20/23 68.7 1440 54.2 0519 69 16 38.2 49.3 51.7 45.5 0.0 0.0
7/19/23 64.4 1336 54.8 0545 68 47 43.7 50.9 54.0 48.4 0.0 0.0
7/18/23 64.3 1335 55.2 1956 77 46 44.9 51.7 55.0 48.6 0.0 0.0
7/17/23 69.8 1351 56.5 0058 77 27 41.2 51.8 56.4 47.0 0.0 0.0
7/16/23 72.7 1335 56.7 0251 47 18 31.2 48.7 52.1 44.0 0.0 0.0
7/15/23 74.0 1337 53.2 0557 33 10 25.7 46.6 50.9 40.8 0.0 0.0
Max 74.0 - 56.7 - 100 98 44.9 51.8 56.4 48.6 24.0 24.0
Avg - - - - - - 21.4 31.8 - - - 9.2
Min 10.6 - 1.3 - 23 5 -11.8 4.7 8.9 1.2 0.0 0.0
Total - - - - - - - - - - - 3,195.1